createdAt,value
2019-03-21T00:01:41.569Z,4.27
2019-03-21T00:06:46.147Z,4.20
2019-03-21T00:11:58.417Z,2.65
2019-03-21T00:28:26.317Z,3.17
2019-03-21T00:33:31.337Z,4.27
2019-03-21T00:38:36.113Z,2.37
2019-03-21T00:43:41.745Z,4.67
2019-03-21T00:48:46.248Z,3.67
2019-03-21T00:53:52.010Z,2.92
2019-03-21T00:58:56.781Z,4.63
2019-03-21T01:04:03.421Z,3.12
2019-03-21T01:09:08.960Z,4.72
2019-03-21T01:14:15.148Z,3.87
2019-03-21T01:19:19.925Z,3.87
2019-03-21T01:24:24.523Z,3.35
2019-03-21T01:29:29.061Z,3.08
2019-03-21T01:34:34.639Z,3.27
2019-03-21T01:39:39.134Z,4.58
2019-03-21T01:44:45.255Z,6.37
2019-03-21T01:49:50.090Z,2.53
2019-03-21T01:54:55.461Z,3.25
2019-03-21T02:00:00.423Z,3.40
2019-03-21T02:05:05.814Z,4.80
2019-03-21T02:10:11.547Z,3.00
2019-03-21T02:15:16.718Z,4.17
2019-03-21T02:20:22.394Z,4.80
2019-03-21T02:25:28.349Z,3.92
2019-03-21T02:30:33.617Z,3.22
2019-03-21T02:35:38.975Z,2.12
2019-03-21T02:40:43.780Z,2.37
2019-03-21T02:45:48.658Z,3.57
2019-03-21T02:50:53.195Z,4.58
2019-03-21T02:55:58.549Z,7.70
2019-03-21T03:01:03.065Z,3.12
2019-03-21T03:06:08.660Z,3.90
2019-03-21T03:11:14.978Z,5.10
2019-03-21T03:16:20.100Z,3.60
2019-03-21T03:21:24.601Z,3.77
2019-03-21T03:26:30.510Z,4.80
2019-03-21T03:31:35.027Z,3.30
2019-03-21T03:36:40.910Z,3.03
2019-03-21T03:41:45.695Z,5.90
2019-03-21T03:46:51.647Z,3.42
2019-03-21T03:51:56.174Z,2.65
2019-03-21T03:57:01.376Z,3.60
2019-03-21T04:02:06.171Z,3.73
2019-03-21T04:07:11.231Z,3.50
2019-03-21T04:12:16.081Z,5.28
2019-03-21T04:17:21.592Z,5.30
2019-03-21T04:22:26.069Z,3.53
2019-03-21T04:27:31.045Z,2.98
2019-03-21T04:32:35.874Z,2.97
2019-03-21T04:37:40.430Z,4.80
2019-03-21T04:42:44.924Z,3.73
2019-03-21T04:47:49.535Z,1.67
2019-03-21T04:52:54.325Z,3.00
2019-03-21T04:57:59.512Z,5.60
2019-03-21T05:03:04.398Z,1.83
2019-03-21T05:08:10.485Z,5.60
2019-03-21T05:13:16.051Z,3.97
2019-03-21T05:18:23.832Z,4.50
2019-03-21T05:23:28.488Z,3.33
2019-03-21T05:28:33.747Z,2.83
2019-03-21T05:33:38.567Z,2.57
2019-03-21T05:38:44.042Z,3.27
2019-03-21T05:43:50.538Z,3.40
2019-03-21T05:48:55.334Z,2.23
2019-03-21T05:54:00.118Z,4.43
2019-03-21T05:59:05.388Z,3.42
2019-03-21T06:04:10.177Z,2.47
2019-03-21T06:09:16.085Z,4.57
2019-03-21T06:14:21.661Z,3.07
2019-03-21T06:19:32.258Z,4.42
2019-03-21T06:24:55.804Z,3.47
2019-03-21T06:30:00.591Z,4.75
2019-03-21T06:35:09.550Z,3.90
2019-03-21T06:40:15.180Z,5.13
2019-03-21T06:45:20.171Z,3.13
2019-03-21T06:50:25.044Z,5.73
2019-03-21T06:55:29.816Z,4.33
2019-03-21T07:00:35.598Z,4.93
2019-03-21T07:05:40.123Z,3.95
2019-03-21T07:10:44.981Z,6.90
2019-03-21T07:15:49.555Z,20.15
2019-03-21T07:20:54.093Z,11.30
2019-03-21T07:25:58.877Z,12.83
2019-03-21T07:31:04.490Z,7.40
2019-03-21T07:36:09.305Z,3.80
2019-03-21T07:41:14.600Z,8.47
2019-03-21T07:46:19.417Z,6.53
2019-03-21T07:51:24.263Z,5.67
2019-03-21T07:56:29.115Z,5.60
2019-03-21T08:01:33.898Z,7.43
2019-03-21T08:06:38.732Z,6.30
2019-03-21T08:11:43.517Z,8.40
2019-03-21T08:16:48.309Z,12.73
2019-03-21T08:21:53.121Z,6.47
2019-03-21T08:26:57.912Z,5.83
2019-03-21T08:32:02.698Z,9.27
2019-03-21T08:37:07.499Z,9.57
2019-03-21T08:42:12.272Z,6.83
2019-03-21T08:47:17.069Z,7.10
2019-03-21T08:52:22.877Z,7.77
2019-03-21T08:57:27.668Z,6.53
2019-03-21T09:02:32.468Z,7.43
2019-03-21T09:07:37.247Z,6.73
2019-03-21T09:12:42.733Z,5.87
2019-03-21T09:17:47.728Z,5.90
2019-03-21T09:22:52.523Z,5.83
2019-03-21T09:28:02.498Z,11.33
2019-03-21T09:33:03.821Z,4.40
2019-03-21T09:38:08.610Z,4.20
2019-03-21T09:43:13.377Z,4.40
2019-03-21T09:48:18.164Z,6.27
2019-03-21T09:53:23.196Z,4.77
2019-03-21T09:58:27.972Z,6.97
2019-03-21T10:03:32.770Z,6.03
2019-03-21T10:08:37.942Z,7.17
2019-03-21T10:13:42.742Z,6.23
2019-03-21T10:18:47.633Z,8.47
2019-03-21T10:23:52.419Z,6.80
2019-03-21T10:28:58.728Z,8.67
2019-03-21T10:34:03.515Z,9.07
2019-03-21T10:39:08.277Z,8.70
2019-03-21T10:44:13.068Z,10.83
2019-03-21T10:49:17.961Z,8.03
2019-03-21T10:54:23.791Z,6.87
2019-03-21T10:59:31.021Z,7.57
2019-03-21T11:04:35.822Z,7.00
2019-03-21T11:09:40.721Z,9.07
2019-03-21T11:14:45.498Z,8.27
2019-03-21T11:19:51.408Z,10.87
2019-03-21T11:24:56.240Z,8.27
2019-03-21T11:30:02.187Z,8.27
2019-03-21T11:35:08.130Z,7.20
2019-03-21T11:40:13.850Z,8.30
2019-03-21T11:45:18.648Z,10.47
2019-03-21T11:50:24.984Z,7.83
2019-03-21T11:55:29.777Z,4.47
2019-03-21T12:00:43.182Z,6.20
2019-03-21T12:05:41.437Z,6.23
2019-03-21T12:10:47.234Z,6.83
2019-03-21T12:15:52.021Z,7.80
2019-03-21T12:20:57.359Z,9.03
2019-03-21T12:26:02.326Z,9.03
2019-03-21T12:31:07.107Z,5.17
2019-03-21T12:36:11.987Z,7.57
2019-03-21T12:41:17.657Z,9.00
2019-03-21T12:46:22.506Z,7.37
2019-03-21T12:51:29.154Z,5.53
2019-03-21T12:56:33.929Z,10.87
2019-03-21T13:01:39.071Z,8.17
2019-03-21T13:06:43.858Z,6.93
2019-03-21T13:11:49.181Z,6.33
2019-03-21T13:16:53.957Z,9.10
2019-03-21T13:21:58.999Z,9.73
2019-03-21T13:27:03.782Z,7.90
2019-03-21T13:32:08.702Z,8.73
2019-03-21T13:37:13.501Z,6.03
2019-03-21T13:42:18.459Z,8.30
2019-03-21T13:47:23.313Z,9.53
2019-03-21T13:52:31.187Z,8.23
2019-03-21T13:57:38.296Z,5.97
2019-03-21T14:02:45.054Z,7.00
2019-03-21T14:07:50.101Z,8.77
2019-03-21T14:12:55.831Z,8.03
2019-03-21T14:18:01.276Z,7.30
2019-03-21T14:23:16.532Z,5.47
2019-03-21T14:28:13.517Z,10.63
2019-03-21T14:33:21.389Z,8.83
2019-03-21T14:38:26.659Z,8.80
2019-03-21T14:43:31.994Z,5.40
2019-03-21T14:48:38.523Z,7.30
2019-03-21T14:53:44.889Z,6.93
2019-03-21T14:58:49.648Z,5.43
2019-03-21T15:03:55.700Z,10.80
2019-03-21T15:09:00.506Z,5.63
2019-03-21T15:14:08.155Z,5.90
2019-03-21T15:19:12.937Z,6.10
2019-03-21T15:24:17.847Z,7.50
2019-03-21T15:29:22.630Z,10.80
2019-03-21T15:34:27.546Z,5.67
2019-03-21T15:39:32.326Z,7.70
2019-03-21T15:44:38.578Z,6.13
2019-03-21T15:49:43.353Z,9.83
2019-03-21T15:54:48.148Z,7.13
2019-03-21T15:59:54.574Z,5.97
2019-03-21T16:05:00.974Z,5.93
2019-03-21T16:10:07.147Z,5.73
2019-03-21T16:15:13.389Z,1.87
2019-03-21T16:20:18.161Z,3.63
2019-03-21T16:25:24.097Z,5.70
2019-03-21T16:30:28.922Z,3.57
2019-03-21T16:35:36.652Z,4.20
2019-03-21T16:40:42.706Z,3.20
2019-03-21T16:45:48.921Z,3.17
2019-03-21T16:50:53.775Z,3.37
2019-03-21T16:55:58.550Z,4.73
2019-03-21T17:01:03.328Z,7.47
2019-03-21T17:06:11.124Z,3.57
2019-03-21T17:11:20.235Z,1.57
2019-03-21T17:16:26.830Z,2.37
2019-03-21T17:21:31.804Z,2.80
2019-03-21T17:26:36.957Z,2.37
2019-03-21T17:31:41.772Z,3.73
2019-03-21T17:36:48.896Z,3.83
2019-03-21T17:41:53.899Z,2.17
2019-03-21T17:46:59.297Z,3.50
2019-03-21T17:52:04.609Z,8.33
2019-03-21T17:57:16.083Z,4.40
2019-03-21T18:02:21.959Z,2.37
2019-03-21T18:07:27.332Z,5.87
2019-03-21T18:12:32.188Z,2.80
2019-03-21T18:17:38.420Z,2.93
2019-03-21T18:22:45.628Z,3.37
2019-03-21T18:27:50.606Z,1.90
2019-03-21T18:32:55.710Z,4.90
2019-03-21T18:38:00.716Z,2.20
2019-03-21T18:43:05.505Z,6.43
2019-03-21T18:48:11.314Z,3.27
2019-03-21T18:53:16.086Z,1.60
2019-03-21T18:58:21.761Z,2.20
2019-03-21T19:03:26.574Z,2.13
2019-03-21T19:08:31.848Z,1.80
2019-03-21T19:13:36.737Z,2.13
2019-03-21T19:18:42.232Z,3.33
2019-03-21T19:23:47.021Z,5.73
2019-03-21T19:28:52.190Z,2.40
2019-03-21T19:33:57.011Z,1.50
2019-03-21T19:39:02.202Z,3.97
2019-03-21T19:44:08.398Z,1.70
2019-03-21T19:49:13.717Z,3.37
2019-03-21T19:54:18.560Z,1.93
2019-03-21T19:59:23.405Z,4.37
2019-03-21T20:04:28.184Z,2.03
2019-03-21T20:09:33.614Z,2.37
2019-03-21T20:14:38.503Z,4.77
2019-03-21T20:19:44.258Z,2.67
2019-03-21T20:24:49.182Z,2.13
2019-03-21T20:29:54.592Z,3.43
2019-03-21T20:34:59.394Z,1.90
2019-03-21T20:40:05.440Z,2.07
2019-03-21T20:45:10.813Z,2.07
2019-03-21T20:50:16.534Z,3.10
2019-03-21T20:55:24.257Z,5.07
2019-03-21T21:00:29.437Z,4.63
2019-03-21T21:05:34.227Z,3.00
2019-03-21T21:10:39.489Z,5.40
2019-03-21T21:15:44.276Z,2.77
2019-03-21T21:20:49.654Z,3.37
2019-03-21T21:26:04.838Z,2.10
2019-03-21T21:31:01.301Z,2.67
2019-03-21T21:36:06.073Z,2.87
2019-03-21T21:41:11.312Z,2.10
2019-03-21T21:46:16.089Z,2.87
2019-03-21T21:51:20.891Z,2.27
2019-03-21T21:56:25.648Z,3.20
2019-03-21T22:01:31.212Z,4.37
2019-03-21T22:06:36.004Z,2.10
2019-03-21T22:11:41.498Z,3.03
2019-03-21T22:16:47.390Z,2.80
2019-03-21T22:21:54.261Z,4.17
2019-03-21T22:26:59.327Z,2.17
2019-03-21T22:32:05.712Z,2.47
2019-03-21T22:37:10.562Z,4.10
2019-03-21T22:42:15.828Z,2.97
2019-03-21T22:47:20.631Z,3.50
2019-03-21T22:52:25.585Z,5.17
2019-03-21T22:57:30.360Z,2.47
2019-03-21T23:02:36.026Z,3.63
2019-03-21T23:07:40.888Z,3.50
2019-03-21T23:12:46.348Z,2.57
2019-03-21T23:17:51.146Z,3.77
2019-03-21T23:22:56.067Z,3.00
2019-03-21T23:28:00.858Z,2.93
2019-03-21T23:33:06.076Z,5.20
2019-03-21T23:38:10.868Z,3.17
2019-03-21T23:43:15.738Z,3.20
2019-03-21T23:48:20.558Z,2.93
2019-03-21T23:53:25.952Z,2.40
2019-03-21T23:58:30.758Z,2.93
